Tutti
Maitland Airport (Maitland, New South Wales) MTL Meteo
|
Maitland, New South Wales (MTL / YMND)
Cielo sereno
Venti leggeri |
|
15 °C |
Previsione area Terminal MTL
| Here is the undecoded forecast: 2026/09/04 18:42 YMND 041842Z 0420/0508 31008KT CAVOK FM050000 35014KT CAVOK BECMG 0503/0504 31018G33KT CAVOK RMK FM050000 MOD TURB BLW 5000FT TL050200 FM050200 SEV TURB BLW 5000FT T 12 20 28 30 Q 1016 1016 1012 1009 |
Storico METAR MTL recente
| Date | Time (AEST) | Flight Rules | Wind Dir. | Speed | Type | Height AGL (ft) | Visibility | Temp (°C) | Temp (°F) | Dew Point (°C) | Dew Point (°F) | Rel. Humid. | Pressure | Density Altitude | Remarks |
|---|---|---|---|---|---|---|---|---|---|---|---|---|---|---|---|
| 05-set | 05:00 | VFR | 280° | 6 kt | 10000 meters | 15° | 59° | 8° | 46° | 63% | 1017 mb | -27 ft | |||
| 05-set | 04:00 | VFR | 290° | 5 kt | 10000 meters | 15° | 59° | 8° | 46° | 63% | 1016 mb | 3 ft | |||
| 05-set | 03:00 | VFR | Calm | 10000 meters | 11° | 51° | 8° | 46° | 82% | 1017 mb | -507 ft | ||||
| 05-set | 02:00 | VFR | 280° | 3 kt | 10000 meters | 12° | 53° | 7° | 44° | 71% | 1018 mb | -417 ft | |||
| 05-set | 01:00 | VFR | 270° | 5 kt | 10000 meters | 15° | 59° | 7° | 44° | 59% | 1018 mb | -57 ft | |||
| 05-set | 00:00 | VFR | 290° | 5 kt | 10000 meters | 15° | 59° | 7° | 44° | 59% | 1018 mb | -57 ft | |||
| 04-set | 23:00 | VFR | 270° | 4 kt | 10000 meters | 14° | 57° | 8° | 46° | 67% | 1019 mb | -206 ft | |||
| 04-set | 22:00 | VFR | 270° | 3 kt | 10000 meters | 13° | 55° | 9° | 48° | 77% | 1019 mb | -326 ft | |||
| 04-set | 21:00 | VFR | 180° | 5 kt | 10000 meters | 13° | 55° | 11° | 51° | 88% | 1019 mb | -326 ft | |||
| 04-set | 20:00 | VFR | 110° | 1 kt | 10000 meters | 13° | 55° | 9° | 48° | 77% | 1018 mb | -297 ft | |||
| 04-set | 19:00 | VFR | 110° | 3 kt | 10000 meters | 16° | 60° | 12° | 53° | 77% | 1017 mb | 93 ft | |||
| 04-set | 18:00 | VFR | 340° | 2 kt | 10000 meters | 18° | 64° | 9° | 48° | 56% | 1017 mb | 333 ft | |||
| 04-set | 17:00 | VFR | 330° | 5 kt | 10000 meters | 23° | 73° | 9° | 48° | 41% | 1016 mb | 963 ft | |||
| 04-set | 16:00 | VFR | 320° | 7 kt | 10000 meters | 24° | 75° | 8° | 46° | 36% | 1016 mb | 1.083 ft | |||
| 04-set | 15:00 | VFR | 320° | 9 kt | 10000 meters | 24° | 75° | 8° | 46° | 36% | 1017 mb | 1.053 ft | |||
| 04-set | 14:00 | VFR | 330° | 7 kt | 10000 meters | 23° | 73° | 8° | 46° | 38% | 1018 mb | 903 ft | |||
| 04-set | 13:00 | VFR | 280° | 7 kt | 10000 meters | 22° | 71° | 8° | 46° | 41% | 1019 mb | 754 ft | |||
| 04-set | 12:00 | VFR | 260° | 6 kt | 10000 meters | 21° | 69° | 7° | 44° | 40% | 1020 mb | 604 ft | |||
| 04-set | 11:00 | VFR | 300° | 6 kt | 10000 meters | 20° | 68° | 7° | 44° | 43% | 1021 mb | 455 ft | |||
| 04-set | 10:00 | VFR | 250° | 7 kt | 10000 meters | 19° | 66° | 7° | 44° | 46% | 1022 mb | 305 ft | |||
| 04-set | 09:00 | VFR | 300° | 8 kt | 10000 meters | 18° | 64° | 10° | 50° | 59% | 1022 mb | 185 ft | |||
| 04-set | 08:00 | VFR | 310° | 8 kt | 10000 meters | 15° | 59° | 10° | 50° | 72% | 1022 mb | -175 ft | |||
| 04-set | 07:00 | VFR | 270° | 5 kt | 10000 meters | 12° | 53° | 11° | 51° | 94% | 1021 mb | -505 ft | |||
| 04-set | 06:00 | VFR | Calm | 10000 meters | 8° | 46° | 8° | 46° | 100% | 1021 mb | -985 ft |
Accedi
| Il tuo browser non è supportato. fai l'upgrade del tuo browser |
